Terminal Aerodrome Forecast
Issued by NWS

Home | Current Version | Previous Version | Text Only | Print | Product List | Glossary On
Versions: 1 2 3 4 5 6 7 8 9 10 11 12 13 14
131
FTUS43 KEAX 052321
TAFMKC
TAF
KMKC 052321Z 0600/0624 16006KT P6SM SCT150
     FM060500 31008KT P6SM FEW030 BKN040
     FM061100 32012KT P6SM SCT120
     FM062000 30007KT P6SM SKC=

USA.gov is the U.S. government's official web portal to all federal, state and local government web resources and services.